IGO388 VOML-VOBL
Flight info
| Callsign | IGO388 |
|---|---|
| Flight time | 0h 35m |
| Altitude | 23000 |
| Route | DCT MML W81 PEXEG PEXEG7E |
| Aircraft | A320/M-SDE3FGHIRWY/LB1 |
Departure
| Time | 2026-05-08 13:17 |
|---|---|
| Airport | Mangaluru International Airport (VOML) |
Arrival
| Time | 2026-05-08 13:52 |
|---|---|
| Airport | Kempegowda International Airport Bengaluru (VOBL) |
| Time | Latitude | Longitude | Altitude | Speed | Heading |
|---|---|---|---|---|---|
| 2026-05-08 12:55 | 12.94957 | 74.87163 | 291 ft | 0 kts | 18° |
| 2026-05-08 13:04 | 12.94952 | 74.87161 | 319 ft | 4 kts | 18° |
| 2026-05-08 13:05 | 12.94926 | 74.87153 | 317 ft | 4 kts | 18° |
| 2026-05-08 13:05 | 12.94903 | 74.87145 | 318 ft | 2 kts | 18° |
| 2026-05-08 13:05 | 12.94885 | 74.87134 | 317 ft | 4 kts | 81° |
| 2026-05-08 13:05 | 12.94889 | 74.87109 | 319 ft | 4 kts | 110° |
| 2026-05-08 13:06 | 12.94892 | 74.87099 | 319 ft | 0 kts | 108° |
| 2026-05-08 13:09 | 12.94891 | 74.87104 | 319 ft | 2 kts | 108° |
| 2026-05-08 13:09 | 12.94884 | 74.87126 | 318 ft | 5 kts | 108° |
| 2026-05-08 13:09 | 12.94871 | 74.87165 | 319 ft | 7 kts | 108° |
| 2026-05-08 13:10 | 12.94856 | 74.87221 | 317 ft | 9 kts | 99° |
| 2026-05-08 13:10 | 12.94882 | 74.87288 | 317 ft | 11 kts | 59° |
| 2026-05-08 13:10 | 12.94927 | 74.87367 | 319 ft | 14 kts | 59° |
| 2026-05-08 13:10 | 12.94982 | 74.87462 | 318 ft | 16 kts | 59° |
| 2026-05-08 13:11 | 12.95021 | 74.87548 | 318 ft | 13 kts | 86° |
| 2026-05-08 13:11 | 12.95034 | 74.87642 | 318 ft | 15 kts | 54° |
| 2026-05-08 13:11 | 12.95020 | 74.87698 | 317 ft | 7 kts | 141° |
| 2026-05-08 13:11 | 12.94972 | 74.87733 | 317 ft | 10 kts | 146° |
| 2026-05-08 13:12 | 12.94928 | 74.87795 | 317 ft | 12 kts | 77° |
| 2026-05-08 13:12 | 12.94978 | 74.87875 | 318 ft | 14 kts | 58° |
| 2026-05-08 13:12 | 12.95034 | 74.87967 | 318 ft | 16 kts | 58° |
| 2026-05-08 13:12 | 12.95099 | 74.88073 | 318 ft | 19 kts | 58° |
| 2026-05-08 13:13 | 12.95171 | 74.88194 | 319 ft | 21 kts | 58° |
| 2026-05-08 13:13 | 12.95252 | 74.88328 | 319 ft | 23 kts | 58° |
| 2026-05-08 13:13 | 12.95331 | 74.88460 | 318 ft | 19 kts | 58° |
| 2026-05-08 13:13 | 12.95405 | 74.88580 | 317 ft | 21 kts | 57° |
| 2026-05-08 13:14 | 12.95488 | 74.88719 | 316 ft | 24 kts | 58° |
| 2026-05-08 13:14 | 12.95564 | 74.88848 | 317 ft | 21 kts | 58° |
| 2026-05-08 13:14 | 12.95646 | 74.88981 | 317 ft | 23 kts | 58° |
| 2026-05-08 13:14 | 12.95734 | 74.89126 | 319 ft | 25 kts | 57° |
| 2026-05-08 13:15 | 12.95820 | 74.89270 | 319 ft | 21 kts | 58° |
| 2026-05-08 13:15 | 12.95885 | 74.89377 | 320 ft | 14 kts | 58° |
| 2026-05-08 13:15 | 12.95932 | 74.89453 | 320 ft | 11 kts | 54° |
| 2026-05-08 13:15 | 12.96001 | 74.89508 | 320 ft | 14 kts | 38° |
| 2026-05-08 13:16 | 12.95997 | 74.89564 | 319 ft | 6 kts | 218° |
| 2026-05-08 13:16 | 12.95971 | 74.89515 | 320 ft | 15 kts | 239° |
| 2026-05-08 13:16 | 12.95804 | 74.89238 | 320 ft | 82 kts | 238° |
| 2026-05-08 13:16 | 12.95390 | 74.88553 | 318 ft | 140 kts | 238° |
| 2026-05-08 13:17 | 12.94812 | 74.87591 | 547 ft | 165 kts | 242° |
| 2026-05-08 13:17 | 12.94225 | 74.86594 | 1271 ft | 161 kts | 243° |
| 2026-05-08 13:17 | 12.93627 | 74.85605 | 1836 ft | 170 kts | 238° |
| 2026-05-08 13:17 | 12.92651 | 74.84804 | 2069 ft | 197 kts | 200° |
| 2026-05-08 13:18 | 12.91217 | 74.84819 | 2331 ft | 224 kts | 158° |
| 2026-05-08 13:18 | 12.90008 | 74.85901 | 2636 ft | 247 kts | 117° |
| 2026-05-08 13:18 | 12.89684 | 74.87671 | 3066 ft | 265 kts | 79° |
| 2026-05-08 13:18 | 12.90489 | 74.89350 | 3787 ft | 267 kts | 43° |
| 2026-05-08 13:19 | 12.92073 | 74.90244 | 4626 ft | 268 kts | 11° |
| 2026-05-08 13:19 | 12.93923 | 74.90071 | 5422 ft | 274 kts | 340° |
| 2026-05-08 13:19 | 12.95710 | 74.89344 | 6226 ft | 278 kts | 348° |
| 2026-05-08 13:19 | 12.97616 | 74.89389 | 6927 ft | 277 kts | 21° |
| 2026-05-08 13:20 | 12.99163 | 74.90502 | 7684 ft | 275 kts | 54° |
| 2026-05-08 13:20 | 12.99843 | 74.92312 | 8484 ft | 277 kts | 86° |
| 2026-05-08 13:20 | 12.99524 | 74.94263 | 9337 ft | 281 kts | 104° |
| 2026-05-08 13:20 | 12.98973 | 74.96192 | 10069 ft | 286 kts | 104° |
| 2026-05-08 13:21 | 12.98401 | 74.98200 | 10290 ft | 309 kts | 104° |
| 2026-05-08 13:21 | 12.97786 | 75.00372 | 10648 ft | 323 kts | 104° |
| 2026-05-08 13:21 | 12.97157 | 75.02608 | 11241 ft | 329 kts | 103° |
| 2026-05-08 13:21 | 12.96892 | 75.04934 | 11831 ft | 332 kts | 84° |
| 2026-05-08 13:22 | 12.97277 | 75.07274 | 12477 ft | 335 kts | 80° |
| 2026-05-08 13:22 | 12.97591 | 75.09657 | 13104 ft | 340 kts | 83° |
| 2026-05-08 13:22 | 12.97812 | 75.12087 | 13686 ft | 344 kts | 84° |
| 2026-05-08 13:22 | 12.98003 | 75.14550 | 14207 ft | 349 kts | 85° |
| 2026-05-08 13:23 | 12.98201 | 75.17045 | 14726 ft | 353 kts | 84° |
| 2026-05-08 13:23 | 12.98419 | 75.19534 | 15239 ft | 357 kts | 84° |
| 2026-05-08 13:23 | 12.98662 | 75.22083 | 15783 ft | 361 kts | 83° |
| 2026-05-08 13:23 | 12.98924 | 75.24662 | 16305 ft | 366 kts | 83° |
| 2026-05-08 13:24 | 12.99199 | 75.27265 | 16825 ft | 370 kts | 83° |
| 2026-05-08 13:24 | 12.99479 | 75.29899 | 17335 ft | 374 kts | 83° |
| 2026-05-08 13:24 | 12.99761 | 75.32568 | 17841 ft | 378 kts | 83° |
| 2026-05-08 13:24 | 13.00043 | 75.35263 | 18304 ft | 382 kts | 83° |
| 2026-05-08 13:25 | 13.00326 | 75.37984 | 18775 ft | 385 kts | 83° |
| 2026-05-08 13:25 | 13.00611 | 75.40723 | 19240 ft | 388 kts | 83° |
| 2026-05-08 13:25 | 13.00897 | 75.43481 | 19705 ft | 391 kts | 83° |
| 2026-05-08 13:25 | 13.01178 | 75.46223 | 20145 ft | 394 kts | 83° |
| 2026-05-08 13:26 | 13.01463 | 75.49023 | 20601 ft | 396 kts | 83° |
| 2026-05-08 13:26 | 13.01751 | 75.51840 | 21073 ft | 399 kts | 83° |
| 2026-05-08 13:26 | 13.02042 | 75.54675 | 21511 ft | 401 kts | 83° |
| 2026-05-08 13:26 | 13.02335 | 75.57527 | 21944 ft | 403 kts | 83° |
| 2026-05-08 13:27 | 13.02632 | 75.60399 | 22384 ft | 406 kts | 83° |
| 2026-05-08 13:27 | 13.02932 | 75.63287 | 22750 ft | 409 kts | 83° |
| 2026-05-08 13:27 | 13.03232 | 75.66176 | 22854 ft | 403 kts | 83° |
| 2026-05-08 13:27 | 13.03520 | 75.68971 | 22869 ft | 397 kts | 83° |
| 2026-05-08 13:28 | 13.03807 | 75.71775 | 22868 ft | 395 kts | 83° |
| 2026-05-08 13:28 | 13.04091 | 75.74572 | 22867 ft | 394 kts | 83° |
| 2026-05-08 13:28 | 13.04374 | 75.77368 | 22869 ft | 394 kts | 83° |
| 2026-05-08 13:28 | 13.04654 | 75.80164 | 22874 ft | 393 kts | 82° |
| 2026-05-08 13:29 | 13.04932 | 75.82956 | 22872 ft | 393 kts | 82° |
| 2026-05-08 13:29 | 13.05213 | 75.85742 | 22874 ft | 394 kts | 83° |
| 2026-05-08 13:29 | 13.05497 | 75.88536 | 22873 ft | 393 kts | 83° |
| 2026-05-08 13:29 | 13.05779 | 75.91320 | 22872 ft | 393 kts | 82° |
| 2026-05-08 13:30 | 13.06063 | 75.94108 | 22873 ft | 393 kts | 82° |
| 2026-05-08 13:30 | 13.06346 | 75.96861 | 22876 ft | 393 kts | 83° |
| 2026-05-08 13:30 | 13.06630 | 75.99650 | 22876 ft | 393 kts | 82° |
| 2026-05-08 13:30 | 13.06910 | 76.02438 | 22877 ft | 394 kts | 82° |
| 2026-05-08 13:31 | 13.07189 | 76.05227 | 22884 ft | 394 kts | 82° |
| 2026-05-08 13:31 | 13.07444 | 76.08023 | 22879 ft | 394 kts | 82° |
| 2026-05-08 13:31 | 13.07677 | 76.10822 | 22880 ft | 394 kts | 83° |
| 2026-05-08 13:31 | 13.07900 | 76.13621 | 22879 ft | 394 kts | 83° |
| 2026-05-08 13:32 | 13.08120 | 76.16424 | 22875 ft | 394 kts | 84° |
| 2026-05-08 13:32 | 13.08345 | 76.19228 | 22881 ft | 394 kts | 84° |
| 2026-05-08 13:32 | 13.08571 | 76.21993 | 22875 ft | 394 kts | 84° |
| 2026-05-08 13:32 | 13.08801 | 76.24774 | 22583 ft | 389 kts | 83° |
| 2026-05-08 13:33 | 13.09029 | 76.27523 | 22097 ft | 386 kts | 84° |
| 2026-05-08 13:33 | 13.09257 | 76.30255 | 21640 ft | 383 kts | 83° |
| 2026-05-08 13:33 | 13.09480 | 76.32966 | 21162 ft | 380 kts | 84° |
| 2026-05-08 13:33 | 13.09699 | 76.35655 | 20700 ft | 377 kts | 84° |
| 2026-05-08 13:34 | 13.09917 | 76.38322 | 20237 ft | 374 kts | 84° |
| 2026-05-08 13:34 | 13.10137 | 76.40977 | 19776 ft | 372 kts | 84° |
| 2026-05-08 13:34 | 13.10354 | 76.43578 | 19319 ft | 370 kts | 85° |
| 2026-05-08 13:34 | 13.10571 | 76.46206 | 18857 ft | 369 kts | 84° |
| 2026-05-08 13:35 | 13.10787 | 76.48821 | 18395 ft | 368 kts | 85° |
| 2026-05-08 13:35 | 13.11001 | 76.51431 | 17901 ft | 367 kts | 85° |
| 2026-05-08 13:35 | 13.11213 | 76.54027 | 17423 ft | 364 kts | 84° |
| 2026-05-08 13:35 | 13.11422 | 76.56602 | 16971 ft | 360 kts | 85° |
| 2026-05-08 13:36 | 13.11629 | 76.59145 | 16516 ft | 357 kts | 84° |
| 2026-05-08 13:36 | 13.11835 | 76.61668 | 16068 ft | 353 kts | 84° |
| 2026-05-08 13:36 | 13.12037 | 76.64168 | 15622 ft | 350 kts | 84° |
| 2026-05-08 13:36 | 13.12240 | 76.66648 | 15186 ft | 347 kts | 83° |
| 2026-05-08 13:37 | 13.12438 | 76.69075 | 14766 ft | 344 kts | 84° |
| 2026-05-08 13:37 | 13.12634 | 76.71490 | 14536 ft | 335 kts | 84° |
| 2026-05-08 13:37 | 13.12824 | 76.73849 | 14289 ft | 328 kts | 84° |
| 2026-05-08 13:37 | 13.13011 | 76.76161 | 14041 ft | 323 kts | 83° |
| 2026-05-08 13:38 | 13.13196 | 76.78449 | 13795 ft | 321 kts | 84° |
| 2026-05-08 13:38 | 13.13381 | 76.80721 | 13541 ft | 319 kts | 83° |
| 2026-05-08 13:38 | 13.13564 | 76.82984 | 13284 ft | 317 kts | 84° |
| 2026-05-08 13:38 | 13.13747 | 76.85235 | 13052 ft | 317 kts | 84° |
| 2026-05-08 13:39 | 13.13928 | 76.87484 | 12805 ft | 316 kts | 83° |
| 2026-05-08 13:39 | 13.14108 | 76.89740 | 12558 ft | 317 kts | 83° |
| 2026-05-08 13:39 | 13.14228 | 76.91233 | 12399 ft | 316 kts | 83° |
| 2026-05-08 13:39 | 13.14407 | 76.93474 | 12158 ft | 315 kts | 83° |
| 2026-05-08 13:40 | 13.14642 | 76.96428 | 11854 ft | 313 kts | 83° |
| 2026-05-08 13:40 | 13.14820 | 76.98645 | 11615 ft | 311 kts | 83° |
| 2026-05-08 13:40 | 13.14939 | 77.00135 | 11453 ft | 310 kts | 83° |
| 2026-05-08 13:40 | 13.15171 | 77.03038 | 11142 ft | 307 kts | 83° |
| 2026-05-08 13:41 | 13.15346 | 77.05215 | 10906 ft | 305 kts | 83° |
| 2026-05-08 13:41 | 13.15511 | 77.06642 | 10751 ft | 304 kts | 79° |
| 2026-05-08 13:41 | 13.15847 | 77.08778 | 10535 ft | 302 kts | 79° |
| 2026-05-08 13:41 | 13.16196 | 77.10893 | 10306 ft | 299 kts | 79° |
| 2026-05-08 13:42 | 13.16541 | 77.12979 | 10074 ft | 293 kts | 79° |
| 2026-05-08 13:42 | 13.16883 | 77.15024 | 9846 ft | 288 kts | 79° |
| 2026-05-08 13:42 | 13.17333 | 77.17658 | 9531 ft | 275 kts | 79° |
| 2026-05-08 13:42 | 13.17658 | 77.19514 | 9356 ft | 257 kts | 78° |
| 2026-05-08 13:43 | 13.17865 | 77.20708 | 9236 ft | 246 kts | 79° |
| 2026-05-08 13:43 | 13.18153 | 77.22385 | 9063 ft | 232 kts | 79° |
| 2026-05-08 13:43 | 13.18423 | 77.23992 | 8920 ft | 227 kts | 80° |
| 2026-05-08 13:43 | 13.18666 | 77.25571 | 8753 ft | 227 kts | 79° |
| 2026-05-08 13:44 | 13.18917 | 77.27174 | 8578 ft | 227 kts | 79° |
| 2026-05-08 13:44 | 13.19160 | 77.28764 | 8410 ft | 225 kts | 79° |
| 2026-05-08 13:44 | 13.19399 | 77.30340 | 8235 ft | 222 kts | 80° |
| 2026-05-08 13:44 | 13.19645 | 77.31902 | 8068 ft | 221 kts | 78° |
| 2026-05-08 13:45 | 13.19897 | 77.33469 | 7900 ft | 222 kts | 79° |
| 2026-05-08 13:45 | 13.20140 | 77.35024 | 7738 ft | 220 kts | 78° |
| 2026-05-08 13:45 | 13.20378 | 77.36570 | 7574 ft | 219 kts | 79° |
| 2026-05-08 13:45 | 13.20638 | 77.38107 | 7440 ft | 218 kts | 76° |
| 2026-05-08 13:46 | 13.20873 | 77.39627 | 7331 ft | 219 kts | 83° |
| 2026-05-08 13:46 | 13.20927 | 77.41185 | 7213 ft | 220 kts | 87° |
| 2026-05-08 13:46 | 13.20921 | 77.42730 | 7105 ft | 213 kts | 88° |
| 2026-05-08 13:46 | 13.20908 | 77.44223 | 6982 ft | 205 kts | 88° |
| 2026-05-08 13:47 | 13.20897 | 77.45668 | 6866 ft | 201 kts | 88° |
| 2026-05-08 13:47 | 13.20887 | 77.47095 | 6781 ft | 200 kts | 88° |
| 2026-05-08 13:47 | 13.20876 | 77.48533 | 6626 ft | 202 kts | 88° |
| 2026-05-08 13:47 | 13.20865 | 77.49966 | 6407 ft | 200 kts | 88° |
| 2026-05-08 13:48 | 13.20854 | 77.51381 | 6162 ft | 198 kts | 88° |
| 2026-05-08 13:48 | 13.20843 | 77.52793 | 5913 ft | 197 kts | 89° |
| 2026-05-08 13:48 | 13.20832 | 77.54189 | 5671 ft | 195 kts | 89° |
| 2026-05-08 13:48 | 13.20822 | 77.55557 | 5428 ft | 196 kts | 89° |
| 2026-05-08 13:49 | 13.20811 | 77.56945 | 5183 ft | 195 kts | 89° |
| 2026-05-08 13:49 | 13.20800 | 77.58332 | 4940 ft | 194 kts | 88° |
| 2026-05-08 13:49 | 13.20789 | 77.59685 | 4711 ft | 185 kts | 90° |
| 2026-05-08 13:49 | 13.20778 | 77.60953 | 4473 ft | 169 kts | 90° |
| 2026-05-08 13:50 | 13.20769 | 77.62100 | 4257 ft | 153 kts | 89° |
| 2026-05-08 13:50 | 13.20760 | 77.63149 | 4074 ft | 144 kts | 90° |
| 2026-05-08 13:50 | 13.20752 | 77.64162 | 3901 ft | 141 kts | 89° |
| 2026-05-08 13:50 | 13.20744 | 77.65142 | 3729 ft | 136 kts | 88° |
| 2026-05-08 13:51 | 13.20737 | 77.66114 | 3541 ft | 139 kts | 89° |
| 2026-05-08 13:51 | 13.20729 | 77.67093 | 3362 ft | 137 kts | 90° |
| 2026-05-08 13:51 | 13.20719 | 77.68075 | 3165 ft | 136 kts | 91° |
| 2026-05-08 13:51 | 13.20716 | 77.69046 | 2979 ft | 136 kts | 89° |
| 2026-05-08 13:52 | 13.20706 | 77.69892 | 2968 ft | 96 kts | 91° |
| 2026-05-08 13:52 | 13.20702 | 77.70400 | 2968 ft | 46 kts | 90° |
| 2026-05-08 13:52 | 13.20699 | 77.70556 | 2969 ft | 1 kts | 91° |
| 2026-05-08 13:52 | 13.20699 | 77.70577 | 2969 ft | 6 kts | 91° |
| 2026-05-08 13:53 | 13.20698 | 77.70625 | 2969 ft | 8 kts | 90° |
| 2026-05-08 13:53 | 13.20699 | 77.70686 | 2969 ft | 10 kts | 90° |
| 2026-05-08 13:53 | 13.20697 | 77.70763 | 2969 ft | 12 kts | 91° |
| 2026-05-08 13:53 | 13.20690 | 77.70859 | 2968 ft | 15 kts | 99° |
| 2026-05-08 13:54 | 13.20653 | 77.70966 | 2966 ft | 16 kts | 120° |
| 2026-05-08 13:54 | 13.20620 | 77.71023 | 2955 ft | 6 kts | 121° |
| 2026-05-08 13:54 | 13.20597 | 77.71064 | 2966 ft | 7 kts | 120° |
| 2026-05-08 13:54 | 13.20573 | 77.71106 | 2967 ft | 7 kts | 120° |
| 2026-05-08 13:55 | 13.20542 | 77.71158 | 2967 ft | 10 kts | 122° |
| 2026-05-08 13:55 | 13.20520 | 77.71234 | 2966 ft | 12 kts | 93° |
| 2026-05-08 13:55 | 13.20374 | 77.71275 | 2968 ft | 12 kts | 180° |
| 2026-05-08 13:56 | 13.20281 | 77.71274 | 2969 ft | 14 kts | 179° |
| 2026-05-08 13:56 | 13.20239 | 77.71198 | 2968 ft | 15 kts | 270° |
| 2026-05-08 13:56 | 13.20241 | 77.71113 | 2968 ft | 10 kts | 271° |
| 2026-05-08 13:56 | 13.20234 | 77.71081 | 2968 ft | 3 kts | 203° |
| 2026-05-08 13:57 | 13.20205 | 77.71080 | 2968 ft | 5 kts | 181° |
| 2026-05-08 13:57 | 13.20190 | 77.71080 | 2969 ft | 0 kts | 180° |